Time;durP1;ratioP1;P1;durP2;ratioP2;P2;SDS_P1;SDS_P2;PMS_P1;PMS_P2;Temp;Humidity;BMP_temperature;BMP_pressure;BME280_temperature;BME280_humidity;BME280_pressure;Samples;Min_cycle;Max_cycle;Signal;HPM_P1;HPM_P2
2023/01/20 00:01:54;;;;;;;16.00;9.57;;;;;;;;;;4958488;28;20160;-92
2023/01/20 00:04:20;;;;;;;20.77;10.02;;;;;;;;;;4958260;28;20018;-89
2023/01/20 00:06:49;;;;;;;16.55;9.82;;;;;;;;;;4958428;28;20031;-91
2023/01/20 00:09:16;;;;;;;19.30;10.18;;;;;;;;;;4958400;28;20121;-88
2023/01/20 00:11:43;;;;;;;16.33;9.20;;;;;;;;;;4959346;28;20034;-89
2023/01/20 00:14:10;;;;;;;16.35;9.18;;;;;;;;;;4957926;28;20026;-89
2023/01/20 00:16:36;;;;;;;18.58;9.48;;;;;;;;;;4958573;28;20029;-89
2023/01/20 00:19:02;;;;;;;18.70;10.15;;;;;;;;;;4958396;28;20041;-89
2023/01/20 00:21:34;;;;;;;20.85;11.00;;;;;;;;;;4958056;28;20031;-92
2023/01/20 00:24:01;;;;;;;29.17;13.55;;;;;;;;;;4957484;28;20046;-89
2023/01/20 00:26:27;;;;;;;39.35;18.05;;;;;;;;;;4958668;28;20033;-88
2023/01/20 00:28:53;;;;;;;47.33;22.25;;;;;;;;;;4959061;28;20129;-93
2023/01/20 00:31:24;;;;;;;43.70;19.48;;;;;;;;;;4959219;28;20107;-93
2023/01/20 00:33:51;;;;;;;32.03;15.75;;;;;;;;;;4959264;28;20037;-89
2023/01/20 00:36:18;;;;;;;29.80;14.98;;;;;;;;;;4960960;28;20027;-90
2023/01/20 00:38:44;;;;;;;23.13;11.63;;;;;;;;;;4979115;28;20042;-89
2023/01/20 00:41:20;;;;;;;22.13;11.18;;;;;;;;;;4960503;28;20027;-91
2023/01/20 00:43:46;;;;;;;20.52;10.32;;;;;;;;;;4957681;28;20031;-92
2023/01/20 00:46:15;;;;;;;21.00;10.48;;;;;;;;;;4957792;28;20030;-91
2023/01/20 00:48:47;;;;;;;22.63;11.38;;;;;;;;;;4957992;28;20086;-93
2023/01/20 00:51:13;;;;;;;19.95;10.90;;;;;;;;;;4957683;28;20121;-93
2023/01/20 00:53:39;;;;;;;21.35;10.43;;;;;;;;;;4957302;28;20026;-89
2023/01/20 00:56:11;;;;;;;19.33;10.43;;;;;;;;;;4957570;28;20054;-93
2023/01/20 00:58:37;;;;;;;20.17;10.73;;;;;;;;;;4958511;28;20177;-89
2023/01/20 01:01:04;;;;;;;22.90;10.40;;;;;;;;;;4976884;28;20026;-89
2023/01/20 01:03:30;;;;;;;18.10;10.00;;;;;;;;;;4976497;28;20430;-89
2023/01/20 01:06:13;;;;;;;19.10;10.27;;;;;;;;;;4976581;28;20046;-91
2023/01/20 01:08:39;;;;;;;17.00;9.57;;;;;;;;;;4976945;28;20030;-88
2023/01/20 01:11:15;;;;;;;21.17;11.07;;;;;;;;;;4984601;28;20034;-90
2023/01/20 01:13:44;;;;;;;20.13;10.38;;;;;;;;;;4994971;28;20034;-90
2023/01/20 01:16:11;;;;;;;21.40;10.63;;;;;;;;;;4994027;28;20414;-89
2023/01/20 01:18:38;;;;;;;19.08;10.48;;;;;;;;;;4977651;28;20036;-89
2023/01/20 01:21:14;;;;;;;21.60;10.90;;;;;;;;;;4976553;28;20414;-89
2023/01/20 01:23:40;;;;;;;22.80;11.85;;;;;;;;;;4975921;28;20041;-88
2023/01/20 01:26:06;;;;;;;24.17;11.48;;;;;;;;;;4976581;28;20422;-88
2023/01/20 01:28:32;;;;;;;21.20;11.05;;;;;;;;;;4983401;28;20042;-88
2023/01/20 01:31:25;;;;;;;21.48;10.73;;;;;;;;;;4931954;29;20132;-91
2023/01/20 01:33:51;;;;;;;19.65;10.52;;;;;;;;;;4972416;28;20034;-88
2023/01/20 01:36:24;;;;;;;20.92;11.13;;;;;;;;;;4976518;28;20033;-93
2023/01/20 01:38:55;;;;;;;22.48;11.07;;;;;;;;;;4975948;28;20520;-92
2023/01/20 01:41:21;;;;;;;20.95;10.95;;;;;;;;;;4975382;28;20123;-88
2023/01/20 01:44:15;;;;;;;23.98;10.95;;;;;;;;;;4976358;28;20041;-92
2023/01/20 01:46:42;;;;;;;21.88;11.20;;;;;;;;;;4979500;28;20027;-91
2023/01/20 01:49:28;;;;;;;21.15;11.27;;;;;;;;;;4994002;28;20121;-89
2023/01/20 01:52:14;;;;;;;20.13;10.43;;;;;;;;;;4976373;28;20030;-94
2023/01/20 01:54:41;;;;;;;21.58;12.25;;;;;;;;;;4975732;28;20018;-88
2023/01/20 01:57:10;;;;;;;24.17;11.63;;;;;;;;;;4976021;28;20035;-93
2023/01/20 01:59:37;;;;;;;28.63;12.48;;;;;;;;;;4975328;28;20565;-88
2023/01/20 02:02:03;;;;;;;24.42;11.90;;;;;;;;;;4975516;28;20042;-93
2023/01/20 02:04:32;;;;;;;25.42;13.15;;;;;;;;;;4975091;28;20027;-88
2023/01/20 02:07:02;;;;;;;25.73;12.98;;;;;;;;;;4975018;28;20558;-88
2023/01/20 02:09:28;;;;;;;26.13;12.25;;;;;;;;;;4975642;28;20034;-88
2023/01/20 02:11:57;;;;;;;24.38;13.23;;;;;;;;;;4975257;28;20030;-88
2023/01/20 02:14:49;;;;;;;23.38;12.70;;;;;;;;;;4975645;28;20058;-93
2023/01/20 02:17:33;;;;;;;22.27;11.68;;;;;;;;;;4962710;28;20125;-90
2023/01/20 02:20:18;;;;;;;24.48;12.10;;;;;;;;;;4979292;28;20027;-91
2023/01/20 02:22:47;;;;;;;23.88;12.27;;;;;;;;;;4976804;28;20389;-90
2023/01/20 02:25:19;;;;;;;27.15;12.77;;;;;;;;;;4976725;28;20030;-87
2023/01/20 02:28:01;;;;;;;24.08;12.10;;;;;;;;;;4979054;28;20045;-87
2023/01/20 02:30:34;;;;;;;21.55;12.57;;;;;;;;;;4994050;28;20039;-87
2023/01/20 02:33:14;;;;;;;23.45;13.10;;;;;;;;;;4976748;28;20030;-88
2023/01/20 02:35:45;;;;;;;24.55;12.93;;;;;;;;;;4975190;28;20026;-88
2023/01/20 02:38:28;;;;;;;25.17;13.38;;;;;;;;;;4975192;28;20058;-87
2023/01/20 02:41:16;;;;;;;26.15;13.07;;;;;;;;;;4975547;28;20034;-88
2023/01/20 02:43:42;;;;;;;23.00;12.82;;;;;;;;;;4974762;28;20551;-88
2023/01/20 02:46:14;;;;;;;27.17;12.23;;;;;;;;;;4974956;28;20031;-90
2023/01/20 02:48:55;;;;;;;21.75;11.35;;;;;;;;;;4997088;28;20106;-88
2023/01/20 02:51:42;;;;;;;21.83;12.55;;;;;;;;;;4980730;28;20034;-92
2023/01/20 02:54:10;;;;;;;26.05;11.45;;;;;;;;;;4984119;28;20026;-89
2023/01/20 02:56:36;;;;;;;20.35;11.45;;;;;;;;;;4980788;28;20030;-88
2023/01/20 02:59:11;;;;;;;24.67;12.15;;;;;;;;;;4978399;28;20050;-87
2023/01/20 03:01:41;;;;;;;23.10;12.10;;;;;;;;;;4996217;28;20029;-91
2023/01/20 03:04:08;;;;;;;21.23;11.32;;;;;;;;;;4978629;28;20018;-88
2023/01/20 03:06:38;;;;;;;22.88;11.95;;;;;;;;;;4979406;28;20026;-91
2023/01/20 03:09:07;;;;;;;19.98;11.75;;;;;;;;;;5002173;28;20042;-87
2023/01/20 03:11:35;;;;;;;24.13;11.82;;;;;;;;;;4982226;28;20085;-88
2023/01/20 03:14:05;;;;;;;21.75;11.68;;;;;;;;;;4978924;28;20030;-88
2023/01/20 03:16:32;;;;;;;22.65;12.63;;;;;;;;;;4978570;28;20066;-89
2023/01/20 03:18:58;;;;;;;26.60;12.02;;;;;;;;;;4978363;28;20061;-87
2023/01/20 03:21:24;;;;;;;26.63;13.82;;;;;;;;;;4978383;28;20026;-88
2023/01/20 03:23:51;;;;;;;22.50;12.93;;;;;;;;;;4978446;28;20026;-88
2023/01/20 03:26:18;;;;;;;23.55;12.48;;;;;;;;;;4978405;28;20085;-88
2023/01/20 03:28:45;;;;;;;24.20;13.05;;;;;;;;;;4978475;28;20132;-88
2023/01/20 03:31:18;;;;;;;25.55;11.80;;;;;;;;;;4978437;28;20054;-88
2023/01/20 03:33:46;;;;;;;21.08;11.85;;;;;;;;;;4977940;28;20026;-89
2023/01/20 03:36:16;;;;;;;21.63;11.35;;;;;;;;;;4978292;28;20113;-92
2023/01/20 03:38:43;;;;;;;19.13;11.02;;;;;;;;;;4978262;28;20026;-88
2023/01/20 03:41:16;;;;;;;22.20;11.05;;;;;;;;;;4978322;28;20078;-87
2023/01/20 03:43:45;;;;;;;23.17;11.98;;;;;;;;;;4978195;28;20125;-88
2023/01/20 03:46:18;;;;;;;23.15;12.30;;;;;;;;;;4978334;28;20031;-87
2023/01/20 03:48:52;;;;;;;20.60;11.80;;;;;;;;;;4978058;28;20039;-88
2023/01/20 03:51:27;;;;;;;19.80;11.48;;;;;;;;;;4978426;28;20042;-87
2023/01/20 03:53:55;;;;;;;25.13;12.48;;;;;;;;;;4978053;28;20396;-88
2023/01/20 03:56:24;;;;;;;21.45;11.90;;;;;;;;;;4982541;28;20484;-88
2023/01/20 03:58:52;;;;;;;25.88;12.52;;;;;;;;;;4994517;28;20074;-88
2023/01/20 04:01:23;;;;;;;23.35;12.05;;;;;;;;;;4978393;28;20117;-88
2023/01/20 04:03:50;;;;;;;27.33;12.50;;;;;;;;;;4978705;28;20551;-89
2023/01/20 04:06:18;;;;;;;24.25;13.10;;;;;;;;;;4980428;28;20038;-88
2023/01/20 04:08:50;;;;;;;21.80;11.98;;;;;;;;;;4978255;28;20037;-88
2023/01/20 04:11:16;;;;;;;25.00;13.13;;;;;;;;;;4978226;28;20026;-87
2023/01/20 04:13:43;;;;;;;25.50;12.30;;;;;;;;;;4978644;28;20525;-88
2023/01/20 04:16:11;;;;;;;21.80;12.63;;;;;;;;;;4979327;28;20041;-87
2023/01/20 04:18:41;;;;;;;24.52;13.77;;;;;;;;;;4982099;28;20038;-88
2023/01/20 04:21:08;;;;;;;22.45;13.07;;;;;;;;;;4996157;28;20057;-88
2023/01/20 04:23:38;;;;;;;22.95;12.30;;;;;;;;;;4981194;28;20479;-88
2023/01/20 04:26:04;;;;;;;25.90;13.00;;;;;;;;;;4977310;28;20018;-88
2023/01/20 04:28:31;;;;;;;24.80;13.23;;;;;;;;;;4976795;28;20511;-87
2023/01/20 04:31:00;;;;;;;21.25;13.00;;;;;;;;;;4977435;28;20050;-88
2023/01/20 04:33:26;;;;;;;24.55;13.73;;;;;;;;;;4976969;28;20026;-88
2023/01/20 04:36:01;;;;;;;25.30;13.40;;;;;;;;;;4977247;28;20169;-88
2023/01/20 04:38:30;;;;;;;23.00;12.65;;;;;;;;;;4976580;28;20057;-93
2023/01/20 04:40:56;;;;;;;21.40;12.02;;;;;;;;;;4976694;28;20030;-88
2023/01/20 04:43:22;;;;;;;23.95;12.70;;;;;;;;;;4976808;28;20256;-89
2023/01/20 04:45:48;;;;;;;26.90;13.35;;;;;;;;;;4976897;28;20033;-89
2023/01/20 04:48:14;;;;;;;23.17;12.90;;;;;;;;;;4976876;28;20038;-88
2023/01/20 04:50:41;;;;;;;25.38;12.77;;;;;;;;;;4978694;28;20113;-88
2023/01/20 04:53:12;;;;;;;21.63;12.65;;;;;;;;;;4977457;28;20388;-91
2023/01/20 04:55:38;;;;;;;24.45;12.80;;;;;;;;;;4976464;28;20085;-89
2023/01/20 04:58:04;;;;;;;26.48;12.75;;;;;;;;;;4976694;28;20464;-88
2023/01/20 05:00:30;;;;;;;22.23;11.80;;;;;;;;;;4977030;28;20050;-88
2023/01/20 05:03:04;;;;;;;22.00;11.93;;;;;;;;;;4977087;28;20038;-91
2023/01/20 05:05:31;;;;;;;23.92;12.80;;;;;;;;;;4980903;28;20065;-88
2023/01/20 05:07:58;;;;;;;22.77;12.13;;;;;;;;;;4977155;28;20683;-88
2023/01/20 05:10:24;;;;;;;23.38;11.63;;;;;;;;;;4976957;28;20373;-88
2023/01/20 05:12:50;;;;;;;20.73;11.15;;;;;;;;;;4976370;28;20483;-88
2023/01/20 05:15:16;;;;;;;18.77;11.32;;;;;;;;;;4976494;28;20468;-88
2023/01/20 05:17:42;;;;;;;23.73;12.25;;;;;;;;;;4976346;28;20034;-90
2023/01/20 05:20:09;;;;;;;21.10;11.52;;;;;;;;;;4976385;28;20120;-89
2023/01/20 05:22:35;;;;;;;22.85;12.57;;;;;;;;;;4975672;28;20030;-87
2023/01/20 05:25:04;;;;;;;20.92;12.13;;;;;;;;;;4989127;28;20483;-88
2023/01/20 05:27:43;;;;;;;20.08;12.35;;;;;;;;;;4986184;28;20022;-89
2023/01/20 05:30:10;;;;;;;19.92;11.80;;;;;;;;;;4976441;28;20092;-87
2023/01/20 05:32:36;;;;;;;23.02;12.73;;;;;;;;;;4976263;28;20030;-91
2023/01/20 05:35:12;;;;;;;21.35;12.18;;;;;;;;;;4976123;28;20101;-94
2023/01/20 05:37:43;;;;;;;19.10;11.05;;;;;;;;;;4968237;28;20023;-91
2023/01/20 05:40:13;;;;;;;22.00;12.15;;;;;;;;;;4976184;28;20443;-91
2023/01/20 05:42:42;;;;;;;23.15;13.45;;;;;;;;;;4975842;28;20054;-88
2023/01/20 05:45:45;;;;;;;22.40;12.70;;;;;;;;;;4976013;28;20026;-91
2023/01/20 05:48:17;;;;;;;24.65;13.20;;;;;;;;;;4993156;28;20034;-92
2023/01/20 05:50:55;;;;;;;20.33;12.27;;;;;;;;;;4975865;28;20125;-91
2023/01/20 05:56:27;;;;;;;22.30;12.13;;;;;;;;;;4973599;23;20110;-89
2023/01/20 05:58:54;;;;;;;26.63;13.75;;;;;;;;;;4939752;29;20496;-88
2023/01/20 06:01:21;;;;;;;32.25;16.08;;;;;;;;;;4971738;28;20023;-89
2023/01/20 06:03:50;;;;;;;26.27;14.50;;;;;;;;;;4971749;28;20027;-94
2023/01/20 06:06:19;;;;;;;24.63;14.38;;;;;;;;;;4972379;28;20019;-89
2023/01/20 06:08:45;;;;;;;30.98;14.98;;;;;;;;;;4972702;28;20551;-89
2023/01/20 06:11:13;;;;;;;27.23;13.93;;;;;;;;;;4988027;28;20036;-87
2023/01/20 06:13:42;;;;;;;28.48;15.02;;;;;;;;;;4961074;28;20049;-92
2023/01/20 06:16:11;;;;;;;26.65;13.43;;;;;;;;;;4972430;28;20496;-91
2023/01/20 06:18:37;;;;;;;29.25;15.55;;;;;;;;;;4939568;29;20027;-92
2023/01/20 06:21:07;;;;;;;29.27;15.80;;;;;;;;;;4938721;28;20487;-92
2023/01/20 06:23:33;;;;;;;28.63;15.32;;;;;;;;;;4971170;28;20041;-88
2023/01/20 06:26:00;;;;;;;27.80;14.90;;;;;;;;;;4974832;28;20027;-90
2023/01/20 06:28:26;;;;;;;21.33;12.18;;;;;;;;;;4971036;28;20038;-90
2023/01/20 06:30:58;;;;;;;23.60;13.48;;;;;;;;;;4970830;28;20094;-89
2023/01/20 06:33:33;;;;;;;23.23;12.32;;;;;;;;;;4971273;28;20057;-88
2023/01/20 06:36:06;;;;;;;21.05;11.95;;;;;;;;;;4972381;28;20030;-93
2023/01/20 06:38:55;;;;;;;22.70;11.83;;;;;;;;;;4973635;28;20046;-95
2023/01/20 06:41:21;;;;;;;22.55;11.88;;;;;;;;;;4939268;28;20039;-88
2023/01/20 06:43:51;;;;;;;20.83;12.27;;;;;;;;;;4972987;28;20027;-89
2023/01/20 06:46:23;;;;;;;21.67;12.13;;;;;;;;;;4938492;29;20717;-90
2023/01/20 06:48:59;;;;;;;22.75;11.98;;;;;;;;;;4970319;28;20075;-89
2023/01/20 06:51:27;;;;;;;21.23;12.02;;;;;;;;;;4970539;28;20051;-88
2023/01/20 06:53:53;;;;;;;26.23;13.63;;;;;;;;;;4970520;28;20067;-88
2023/01/20 06:56:20;;;;;;;22.55;13.23;;;;;;;;;;4970260;28;20511;-89
2023/01/20 06:58:52;;;;;;;23.52;12.82;;;;;;;;;;4938321;29;20039;-91
2023/01/20 07:01:22;;;;;;;18.95;12.27;;;;;;;;;;4970639;28;20059;-88
2023/01/20 07:03:49;;;;;;;26.02;12.70;;;;;;;;;;4955398;28;20034;-88
2023/01/20 07:06:24;;;;;;;23.60;13.18;;;;;;;;;;4937975;29;20101;-89
2023/01/20 07:08:53;;;;;;;23.00;12.27;;;;;;;;;;4970122;28;20035;-88
2023/01/20 07:11:19;;;;;;;26.17;12.77;;;;;;;;;;4970440;28;20075;-89
2023/01/20 07:13:45;;;;;;;22.58;12.45;;;;;;;;;;4970112;28;20027;-88
2023/01/20 07:16:12;;;;;;;22.48;13.07;;;;;;;;;;4971035;28;20457;-89
2023/01/20 07:18:41;;;;;;;21.55;12.63;;;;;;;;;;4938173;29;20114;-91
2023/01/20 07:21:10;;;;;;;24.40;12.95;;;;;;;;;;4970834;28;20027;-88
2023/01/20 07:23:36;;;;;;;25.23;12.88;;;;;;;;;;4971416;28;20038;-90
2023/01/20 07:26:14;;;;;;;26.17;12.07;;;;;;;;;;4973114;28;20038;-93
2023/01/20 07:28:40;;;;;;;28.00;14.32;;;;;;;;;;4971806;28;20477;-89
2023/01/20 07:31:08;;;;;;;28.45;15.77;;;;;;;;;;4970832;28;20039;-88
2023/01/20 07:33:35;;;;;;;27.95;13.32;;;;;;;;;;4970972;28;20023;-87
2023/01/20 07:36:01;;;;;;;23.52;13.05;;;;;;;;;;4976109;28;20035;-87
2023/01/20 07:38:27;;;;;;;24.80;13.57;;;;;;;;;;4973772;28;20031;-90
2023/01/20 07:40:57;;;;;;;29.60;15.38;;;;;;;;;;4974224;28;20024;-89
2023/01/20 07:43:26;;;;;;;26.10;13.88;;;;;;;;;;4943126;29;20036;-88
2023/01/20 07:45:56;;;;;;;26.15;14.07;;;;;;;;;;4974698;28;20035;-91
2023/01/20 07:48:22;;;;;;;23.70;12.32;;;;;;;;;;4974642;28;20433;-87
2023/01/20 07:50:48;;;;;;;24.52;13.02;;;;;;;;;;4975122;28;20032;-90
2023/01/20 07:53:14;;;;;;;27.23;13.63;;;;;;;;;;4974205;28;20030;-90
2023/01/20 07:55:40;;;;;;;30.45;14.50;;;;;;;;;;4974397;28;20069;-87
2023/01/20 07:58:06;;;;;;;26.30;14.40;;;;;;;;;;4977274;28;20024;-87
2023/01/20 08:00:39;;;;;;;25.85;14.48;;;;;;;;;;4980118;28;20484;-89
2023/01/20 08:03:06;;;;;;;28.15;13.77;;;;;;;;;;4988295;28;20027;-88
2023/01/20 08:05:32;;;;;;;27.13;14.95;;;;;;;;;;4974201;28;20031;-88
2023/01/20 08:07:58;;;;;;;25.63;13.45;;;;;;;;;;4973436;28;20078;-87
2023/01/20 08:10:24;;;;;;;26.75;14.73;;;;;;;;;;4943151;29;20031;-88
2023/01/20 08:12:50;;;;;;;25.27;13.32;;;;;;;;;;4974222;28;20043;-86
2023/01/20 08:15:16;;;;;;;26.27;15.15;;;;;;;;;;4972266;28;20023;-90
2023/01/20 08:17:42;;;;;;;26.42;15.40;;;;;;;;;;4971889;28;20031;-88
2023/01/20 08:20:09;;;;;;;27.90;13.57;;;;;;;;;;4973468;28;20055;-87
2023/01/20 08:22:35;;;;;;;24.27;13.60;;;;;;;;;;4940751;29;20031;-87
2023/01/20 08:25:01;;;;;;;23.33;13.27;;;;;;;;;;4972819;28;20034;-87
2023/01/20 08:27:27;;;;;;;39.22;20.45;;;;;;;;;;4973330;28;20027;-88
2023/01/20 08:29:54;;;;;;;27.15;15.45;;;;;;;;;;4973869;28;20073;-89
2023/01/20 08:32:21;;;;;;;35.75;21.42;;;;;;;;;;4973028;28;20035;-87
2023/01/20 08:34:47;;;;;;;30.83;16.33;;;;;;;;;;4972748;28;20035;-88
2023/01/20 08:37:13;;;;;;;31.50;16.63;;;;;;;;;;4940812;29;20031;-87
2023/01/20 08:39:39;;;;;;;27.10;15.82;;;;;;;;;;4972860;28;20023;-89
2023/01/20 08:42:05;;;;;;;28.08;15.10;;;;;;;;;;4972583;28;20058;-87
2023/01/20 08:44:31;;;;;;;24.08;14.10;;;;;;;;;;4972388;28;20031;-88
2023/01/20 08:46:58;;;;;;;45.25;26.70;;;;;;;;;;4972610;28;20129;-89
2023/01/20 08:49:24;;;;;;;26.95;15.30;;;;;;;;;;4972428;28;20066;-89
2023/01/20 08:51:51;;;;;;;24.25;14.68;;;;;;;;;;4972754;28;20019;-88
2023/01/20 08:54:18;;;;;;;31.88;17.10;;;;;;;;;;4972041;28;20033;-88
2023/01/20 08:56:44;;;;;;;40.88;19.52;;;;;;;;;;4975988;28;20420;-88
2023/01/20 08:59:13;;;;;;;30.92;16.05;;;;;;;;;;4972755;28;20125;-89
2023/01/20 09:01:40;;;;;;;35.70;17.92;;;;;;;;;;4972416;28;20027;-89
2023/01/20 09:04:07;;;;;;;37.08;18.77;;;;;;;;;;4972401;28;20031;-88
2023/01/20 09:06:48;;;;;;;103.20;44.65;;;;;;;;;;4972309;28;20027;-88
2023/01/20 09:09:15;;;;;;;39.83;28.90;;;;;;;;;;4972520;28;20070;-88
2023/01/20 09:11:43;;;;;;;27.05;15.18;;;;;;;;;;4971914;28;20373;-88
2023/01/20 09:14:10;;;;;;;44.67;28.77;;;;;;;;;;4972364;28;20031;-88
2023/01/20 09:16:38;;;;;;;53.90;32.90;;;;;;;;;;4975578;28;20499;-90
2023/01/20 09:19:04;;;;;;;44.67;26.55;;;;;;;;;;4972843;28;20062;-87
2023/01/20 09:21:31;;;;;;;27.40;15.75;;;;;;;;;;4986993;28;20104;-88
2023/01/20 09:24:03;;;;;;;28.73;16.35;;;;;;;;;;4983238;28;20122;-88
2023/01/20 09:26:37;;;;;;;37.70;21.65;;;;;;;;;;4987873;28;20027;-90
2023/01/20 09:29:10;;;;;;;33.75;19.48;;;;;;;;;;4978794;28;20066;-90
2023/01/20 09:31:47;;;;;;;25.60;15.10;;;;;;;;;;4973077;28;20031;-90
2023/01/20 09:34:23;;;;;;;26.35;15.15;;;;;;;;;;4972686;28;20086;-89
2023/01/20 09:36:50;;;;;;;22.95;14.10;;;;;;;;;;4971688;28;20027;-89
2023/01/20 09:44:50;;;;;;;22.05;13.23;;;;;;;;;;4966215;29;20038;-90
2023/01/20 09:47:30;;;;;;;22.73;14.30;;;;;;;;;;4974982;28;20034;-89
2023/01/20 09:53:07;;;;;;;20.17;14.15;;;;;;;;;;4971600;29;20031;-86
2023/01/20 09:55:45;;;;;;;19.83;12.10;;;;;;;;;;4963320;28;20062;-87
2023/01/20 09:58:15;;;;;;;16.88;11.20;;;;;;;;;;4919628;29;20052;-86
2023/01/20 10:00:45;;;;;;;16.30;10.38;;;;;;;;;;4920121;29;20031;-87
2023/01/20 10:03:16;;;;;;;15.95;10.82;;;;;;;;;;4920157;29;20028;-88
2023/01/20 10:05:43;;;;;;;17.17;11.35;;;;;;;;;;4920049;29;20491;-91
2023/01/20 10:08:12;;;;;;;17.73;10.65;;;;;;;;;;4919741;29;20087;-87
2023/01/20 10:11:08;;;;;;;18.25;10.38;;;;;;;;;;4919889;29;20086;-89
2023/01/20 10:13:46;;;;;;;19.65;11.77;;;;;;;;;;4885925;29;20505;-87
2023/01/20 10:16:18;;;;;;;20.13;11.40;;;;;;;;;;4919751;29;20063;-87
2023/01/20 10:18:49;;;;;;;18.33;10.38;;;;;;;;;;4919851;29;20027;-86
2023/01/20 10:21:20;;;;;;;17.13;10.82;;;;;;;;;;4919506;29;20613;-87
2023/01/20 10:23:53;;;;;;;16.33;10.60;;;;;;;;;;4921239;29;20051;-89
2023/01/20 10:26:19;;;;;;;;;;;;;;;;;;4938754;29;20023;-86
2023/01/20 10:28:59;;;;;;;17.45;11.27;;;;;;;;;;4918936;29;20368;-87
2023/01/20 10:31:27;;;;;;;18.58;10.98;;;;;;;;;;4920885;29;20094;-87
2023/01/20 10:33:55;;;;;;;17.08;10.75;;;;;;;;;;4920702;29;20028;-87
2023/01/20 10:36:26;;;;;;;21.25;11.77;;;;;;;;;;4920124;29;20482;-87
2023/01/20 10:39:03;;;;;;;20.23;12.27;;;;;;;;;;4919748;29;20119;-88
2023/01/20 10:41:38;;;;;;;23.42;13.43;;;;;;;;;;4919574;29;20039;-89
2023/01/20 10:44:09;;;;;;;19.58;11.82;;;;;;;;;;4919704;29;20031;-89
2023/01/20 10:46:44;;;;;;;24.80;12.80;;;;;;;;;;4919366;29;20528;-87
2023/01/20 10:49:29;;;;;;;19.83;12.45;;;;;;;;;;4919689;29;20040;-88
2023/01/20 10:52:10;;;;;;;21.35;12.35;;;;;;;;;;4936789;29;20032;-87
2023/01/20 10:54:36;;;;;;;21.00;12.38;;;;;;;;;;4930175;29;20044;-86
2023/01/20 10:57:04;;;;;;;23.08;12.80;;;;;;;;;;4922645;29;20028;-89
2023/01/20 10:59:30;;;;;;;19.65;12.02;;;;;;;;;;4919486;29;20079;-88
2023/01/20 11:02:02;;;;;;;20.42;12.73;;;;;;;;;;4919407;29;20055;-89
2023/01/20 11:04:28;;;;;;;23.33;13.80;;;;;;;;;;4919563;29;20032;-87
2023/01/20 11:06:57;;;;;;;23.83;13.93;;;;;;;;;;4936494;29;20492;-88
2023/01/20 11:09:32;;;;;;;20.98;13.48;;;;;;;;;;4922819;29;20130;-89
2023/01/20 11:12:01;;;;;;;22.42;14.13;;;;;;;;;;4923217;29;20024;-89
2023/01/20 11:14:28;;;;;;;26.55;14.02;;;;;;;;;;4923161;29;20430;-89
2023/01/20 11:16:58;;;;;;;23.00;12.80;;;;;;;;;;4923130;29;20020;-88
2023/01/20 11:19:24;;;;;;;24.60;13.75;;;;;;;;;;4923270;29;20063;-88
2023/01/20 11:21:53;;;;;;;21.83;13.65;;;;;;;;;;4925195;29;20098;-89
2023/01/20 11:24:38;;;;;;;26.20;14.80;;;;;;;;;;4923059;29;20028;-90
2023/01/20 11:27:05;;;;;;;26.48;14.48;;;;;;;;;;4923117;29;20043;-88
2023/01/20 11:29:34;;;;;;;24.27;14.15;;;;;;;;;;4922924;29;20050;-89
2023/01/20 11:32:00;;;;;;;25.50;14.65;;;;;;;;;;4923070;29;20768;-89
2023/01/20 11:34:31;;;;;;;23.40;13.90;;;;;;;;;;4922722;29;20031;-88
2023/01/20 11:37:06;;;;;;;27.65;15.52;;;;;;;;;;4922682;29;20374;-88
2023/01/20 11:39:36;;;;;;;28.67;14.65;;;;;;;;;;4922691;29;20034;-88
2023/01/20 11:42:15;;;;;;;24.08;14.35;;;;;;;;;;4923240;29;20042;-89
2023/01/20 11:44:45;;;;;;;26.55;14.95;;;;;;;;;;4924565;29;20480;-88
2023/01/20 11:47:25;;;;;;;25.38;14.73;;;;;;;;;;4941498;29;20027;-88
2023/01/20 11:50:03;;;;;;;26.88;14.70;;;;;;;;;;4923031;29;20036;-88
2023/01/20 11:52:34;;;;;;;23.50;14.00;;;;;;;;;;4923018;29;20119;-89
2023/01/20 11:55:10;;;;;;;26.88;14.68;;;;;;;;;;4923143;29;20056;-88
2023/01/20 11:57:43;;;;;;;25.95;14.25;;;;;;;;;;4922648;29;20051;-89
2023/01/20 12:00:30;;;;;;;24.30;14.07;;;;;;;;;;4939174;29;20087;-89
2023/01/20 12:02:57;;;;;;;23.02;13.45;;;;;;;;;;4922920;29;20038;-90
2023/01/20 12:05:47;;;;;;;26.17;14.60;;;;;;;;;;4922406;29;20028;-89
2023/01/20 12:08:18;;;;;;;28.30;14.35;;;;;;;;;;4921223;29;20508;-89
2023/01/20 12:10:44;;;;;;;25.00;14.40;;;;;;;;;;4923216;29;20094;-88
2023/01/20 12:13:22;;;;;;;27.75;16.23;;;;;;;;;;4922478;29;20082;-88
2023/01/20 12:15:52;;;;;;;28.90;16.60;;;;;;;;;;4922466;29;20062;-88
2023/01/20 12:18:21;;;;;;;27.33;15.18;;;;;;;;;;4945914;29;20028;-89
2023/01/20 12:21:17;;;;;;;26.67;17.08;;;;;;;;;;4933789;29;20038;-89
2023/01/20 12:24:01;;;;;;;28.55;18.10;;;;;;;;;;4923054;29;20050;-88
2023/01/20 12:26:28;;;;;;;32.83;16.42;;;;;;;;;;4922487;29;20370;-89
2023/01/20 12:28:54;;;;;;;27.75;15.45;;;;;;;;;;4922884;29;20036;-89
2023/01/20 12:31:22;;;;;;;30.67;18.92;;;;;;;;;;4923096;29;20469;-88
2023/01/20 12:34:01;;;;;;;24.45;14.77;;;;;;;;;;4921672;29;20027;-90
2023/01/20 12:36:46;;;;;;;25.38;13.85;;;;;;;;;;4923437;29;20039;-87
2023/01/20 12:39:18;;;;;;;25.73;15.20;;;;;;;;;;4923248;29;20024;-87
2023/01/20 12:42:04;;;;;;;25.30;14.63;;;;;;;;;;4921823;29;20051;-88
2023/01/20 12:44:34;;;;;;;26.85;15.98;;;;;;;;;;4921610;29;20039;-89
2023/01/20 12:47:03;;;;;;;24.55;13.98;;;;;;;;;;4921438;29;20063;-88
2023/01/20 12:49:49;;;;;;;24.27;14.13;;;;;;;;;;4921524;29;20035;-88
2023/01/20 12:52:16;;;;;;;22.90;13.60;;;;;;;;;;4914663;29;20027;-90
2023/01/20 12:54:42;;;;;;;24.00;13.82;;;;;;;;;;4922705;29;20055;-88
2023/01/20 12:57:21;;;;;;;25.38;14.38;;;;;;;;;;4922167;29;20023;-87
2023/01/20 12:59:53;;;;;;;24.33;13.70;;;;;;;;;;4921326;29;20034;-89
2023/01/20 13:02:19;;;;;;;23.15;13.32;;;;;;;;;;4921358;29;20079;-87
2023/01/20 13:04:53;;;;;;;25.23;13.02;;;;;;;;;;4921020;29;20074;-87
2023/01/20 13:07:38;;;;;;;24.38;14.77;;;;;;;;;;4921263;29;20027;-88
2023/01/20 13:10:26;;;;;;;22.75;13.60;;;;;;;;;;4921207;29;20074;-95
2023/01/20 13:12:55;;;;;;;24.60;13.65;;;;;;;;;;4921388;29;20038;-88
2023/01/20 13:15:28;;;;;;;25.00;13.00;;;;;;;;;;4922269;29;20024;-90
2023/01/20 13:18:06;;;;;;;26.17;13.77;;;;;;;;;;4922014;29;20028;-91
2023/01/20 13:20:40;;;;;;;20.88;12.57;;;;;;;;;;4921736;29;20028;-92
2023/01/20 13:23:10;;;;;;;25.63;12.05;;;;;;;;;;4921465;29;20118;-88
2023/01/20 13:25:38;;;;;;;26.27;13.13;;;;;;;;;;4920831;29;20031;-91
2023/01/20 13:28:10;;;;;;;23.38;11.70;;;;;;;;;;4921775;29;20027;-91
2023/01/20 13:30:49;;;;;;;20.88;11.45;;;;;;;;;;4923257;29;20131;-89
2023/01/20 13:33:34;;;;;;;20.25;11.15;;;;;;;;;;4933675;29;20123;-88
2023/01/20 13:36:16;;;;;;;20.58;10.98;;;;;;;;;;4925518;29;20024;-90
2023/01/20 13:38:42;;;;;;;19.25;11.40;;;;;;;;;;4923560;29;20094;-89
2023/01/20 13:41:35;;;;;;;23.55;11.18;;;;;;;;;;4938403;29;20081;-89
2023/01/20 13:44:21;;;;;;;22.88;13.73;;;;;;;;;;4925376;29;20075;-89
2023/01/20 13:46:50;;;;;;;20.92;12.40;;;;;;;;;;4921416;29;20027;-89
2023/01/20 13:49:22;;;;;;;25.60;17.65;;;;;;;;;;4920510;29;20039;-89
2023/01/20 13:51:48;;;;;;;19.50;10.68;;;;;;;;;;4920697;29;20115;-90
2023/01/20 13:54:34;;;;;;;17.42;10.25;;;;;;;;;;4921158;29;20028;-93
2023/01/20 13:57:26;;;;;;;20.95;9.95;;;;;;;;;;4971781;28;20118;-91
2023/01/20 13:59:53;;;;;;;20.05;10.20;;;;;;;;;;4972094;28;20055;-90
2023/01/20 14:02:20;;;;;;;18.33;9.38;;;;;;;;;;4971392;28;20035;-90
2023/01/20 14:04:47;;;;;;;18.42;9.95;;;;;;;;;;4971469;28;20027;-88
2023/01/20 14:07:26;;;;;;;19.77;10.55;;;;;;;;;;4971092;28;20031;-91
2023/01/20 14:09:59;;;;;;;19.45;10.18;;;;;;;;;;4970418;28;20043;-87
2023/01/20 14:12:28;;;;;;;22.65;11.18;;;;;;;;;;4949956;29;20158;-87
2023/01/20 14:14:54;;;;;;;21.70;10.60;;;;;;;;;;4938818;29;20492;-87
2023/01/20 14:17:24;;;;;;;20.63;11.25;;;;;;;;;;4939933;29;20027;-92
2023/01/20 14:19:52;;;;;;;16.67;9.77;;;;;;;;;;4933807;29;20481;-91
2023/01/20 14:22:28;;;;;;;15.30;9.05;;;;;;;;;;4955763;28;20477;-87
2023/01/20 14:25:00;;;;;;;16.75;9.52;;;;;;;;;;4938870;29;20389;-90
2023/01/20 14:27:31;;;;;;;15.63;8.85;;;;;;;;;;4940472;29;20117;-87
2023/01/20 14:30:01;;;;;;;16.15;9.38;;;;;;;;;;4939423;29;20031;-85
2023/01/20 14:32:36;;;;;;;16.88;9.82;;;;;;;;;;4954537;29;20354;-88
2023/01/20 14:35:11;;;;;;;15.45;9.73;;;;;;;;;;4937542;29;20620;-91
2023/01/20 14:37:38;;;;;;;17.40;10.00;;;;;;;;;;4938643;29;20019;-87
2023/01/20 14:43:29;;;;;;;18.58;9.25;;;;;;;;;;4878788;29;20175;-87
2023/01/20 14:45:55;;;;;;;17.75;9.48;;;;;;;;;;4880687;29;20160;-90
2023/01/20 14:48:23;;;;;;;15.20;9.05;;;;;;;;;;4878752;29;20446;-94
2023/01/20 14:50:54;;;;;;;16.42;8.93;;;;;;;;;;4878406;29;20636;-90
2023/01/20 14:53:20;;;;;;;16.98;9.40;;;;;;;;;;4937649;29;20141;-91
2023/01/20 14:56:08;;;;;;;17.90;9.80;;;;;;;;;;4944668;28;20055;-88